TimeHAST,TemperatureF,Dew PointF,Humidity,Sea Level PressureIn,VisibilityMPH,Wind Direction,Wind SpeedMPH,Gust SpeedMPH,PrecipitationIn,Events,Conditions,WindDirDegrees,DateUTC
12:56 AM,36.0,30.0,79,30.14,10.0,East,27.6,33.4,N/A,,Overcast,100,2013-12-16 10:56:00
1:56 AM,35.1,28.9,78,30.13,10.0,East,24.2,29.9,N/A,,Mostly Cloudy,100,2013-12-16 11:56:00
2:56 AM,35.1,30.0,82,30.12,10.0,East,23.0,29.9,N/A,,Mostly Cloudy,100,2013-12-16 12:56:00
3:56 AM,37.0,26.1,65,30.11,10.0,East,20.7,-,N/A,,Overcast,100,2013-12-16 13:56:00
4:56 AM,35.1,28.9,78,30.10,10.0,East,18.4,-,N/A,,Overcast,80,2013-12-16 14:56:00
5:56 AM,36.0,28.9,76,30.10,10.0,East,23.0,-,N/A,,Overcast,100,2013-12-16 15:56:00
6:56 AM,34.0,30.0,85,30.10,9.0,East,17.3,-,N/A,Snow,Light Snow,100,2013-12-16 16:56:00
7:06 AM,35.6,30.2,81,30.09,10.0,East,20.7,-,N/A,,Overcast,100,2013-12-16 17:06:00
7:56 AM,36.0,32.0,86,30.09,10.0,East,20.7,-,N/A,,Mostly Cloudy,90,2013-12-16 17:56:00
8:54 AM,35.6,32.0,87,30.09,6.2,ESE,21.9,31.1,N/A,Rain,Light Rain,110,2013-12-16 18:54:00
8:56 AM,36.0,32.0,86,30.10,8.0,ESE,24.2,31.1,N/A,Rain,Light Rain,110,2013-12-16 18:56:00
9:07 AM,35.6,32.0,87,30.09,10.0,East,25.3,31.1,N/A,,Overcast,100,2013-12-16 19:07:00
9:18 AM,35.6,32.0,87,30.09,10.0,East,21.9,-,N/A,,Overcast,90,2013-12-16 19:18:00
9:56 AM,36.0,32.0,86,30.09,10.0,East,23.0,-,N/A,,Mostly Cloudy,80,2013-12-16 19:56:00
10:56 AM,37.0,33.1,86,30.10,10.0,East,23.0,29.9,N/A,,Mostly Cloudy,100,2013-12-16 20:56:00
11:56 AM,36.0,32.0,86,30.10,10.0,East,19.6,28.8,N/A,,Overcast,100,2013-12-16 21:56:00
12:56 PM,37.9,33.1,83,30.09,10.0,East,23.0,-,N/A,,Overcast,90,2013-12-16 22:56:00
1:56 PM,39.0,30.9,73,30.07,10.0,East,26.5,31.1,N/A,,Overcast,100,2013-12-16 23:56:00
2:19 PM,39.2,30.2,70,30.06,10.0,East,23.0,32.2,N/A,,Overcast,90,2013-12-17 00:19:00
2:56 PM,39.0,32.0,76,30.06,10.0,East,24.2,-,N/A,,Overcast,90,2013-12-17 00:56:00
3:56 PM,37.9,33.1,83,30.05,10.0,East,24.2,29.9,N/A,,Overcast,90,2013-12-17 01:56:00
4:56 PM,39.0,33.1,79,30.04,10.0,East,20.7,-,N/A,,Overcast,90,2013-12-17 02:56:00
5:56 PM,36.0,30.9,82,30.04,9.0,East,28.8,-,N/A,Rain,Light Rain,100,2013-12-17 03:56:00
6:13 PM,37.4,32.0,81,30.03,10.0,East,26.5,-,N/A,,Overcast,90,2013-12-17 04:13:00
6:56 PM,37.9,33.1,83,30.02,10.0,East,21.9,31.1,N/A,,Overcast,90,2013-12-17 04:56:00
7:56 PM,37.0,32.0,82,30.01,10.0,East,24.2,-,N/A,,Overcast,80,2013-12-17 05:56:00
8:30 PM,35.6,32.0,87,30.02,10.0,East,16.1,-,N/A,Rain,Light Rain,90,2013-12-17 06:30:00
8:39 PM,37.4,33.8,87,30.02,10.0,East,26.5,31.1,N/A,,Overcast,100,2013-12-17 06:39:00
8:51 PM,37.4,33.8,87,30.02,10.0,East,24.2,-,N/A,,Overcast,90,2013-12-17 06:51:00
8:56 PM,37.9,34.0,86,30.02,10.0,East,26.5,-,N/A,,Overcast,90,2013-12-17 06:56:00
9:56 PM,37.0,33.1,86,30.02,10.0,East,27.6,32.2,N/A,,Overcast,90,2013-12-17 07:56:00
10:56 PM,37.9,33.1,83,30.01,10.0,East,23.0,31.1,N/A,,Overcast,90,2013-12-17 08:56:00
11:28 PM,37.4,33.8,87,29.99,10.0,East,24.2,29.9,N/A,,Overcast,90,2013-12-17 09:28:00
11:46 PM,37.4,33.8,87,29.99,10.0,East,27.6,34.5,N/A,,Overcast,90,2013-12-17 09:46:00
11:56 PM,37.9,33.1,83,29.99,10.0,East,28.8,34.5,N/A,,Overcast,90,2013-12-17 09:56:00